Time;durP1;ratioP1;P1;durP2;ratioP2;P2;SDS_P1;SDS_P2;PMS_P1;PMS_P2;Temp;Humidity;BMP_temperature;BMP_pressure;BME280_temperature;BME280_humidity;BME280_pressure;Samples;Min_cycle;Max_cycle;Signal;HPM_P1;HPM_P2
2024/03/12 00:00:28;;;;;;;0.80;0.63;;;;;;;;;;1046730;28;20162;-75
2024/03/12 00:00:59;;;;;;;0.55;0.45;;;;;;;;;;1044302;28;20029;-76
2024/03/12 00:01:29;;;;;;;1.50;1.10;;;;;;;;;;1046453;28;20699;-77
2024/03/12 00:02:00;;;;;;;1.52;1.42;;;;;;;;;;1045926;28;20047;-75
2024/03/12 00:02:34;;;;;;;1.10;1.10;;;;;;;;;;1042784;28;20389;-74
2024/03/12 00:03:09;;;;;;;0.60;0.60;;;;;;;;;;1042008;28;20066;-75
2024/03/12 00:03:42;;;;;;;1.98;1.25;;;;;;;;;;1044879;28;20503;-76
2024/03/12 00:04:13;;;;;;;1.27;0.85;;;;;;;;;;1044849;28;20036;-75
2024/03/12 00:04:43;;;;;;;2.00;0.98;;;;;;;;;;1044482;28;20033;-75
2024/03/12 00:05:14;;;;;;;4.13;1.33;;;;;;;;;;1045360;28;20495;-74
2024/03/12 00:05:44;;;;;;;3.45;1.13;;;;;;;;;;1045685;28;20033;-75
2024/03/12 00:06:15;;;;;;;5.70;2.42;;;;;;;;;;1044541;28;20505;-74
2024/03/12 00:06:45;;;;;;;4.22;2.60;;;;;;;;;;1045244;28;20421;-74
2024/03/12 00:07:21;;;;;;;1.95;1.85;;;;;;;;;;1046163;28;20024;-75
2024/03/12 00:07:52;;;;;;;2.63;1.52;;;;;;;;;;1046430;28;20044;-75
2024/03/12 00:08:22;;;;;;;0.50;0.50;;;;;;;;;;1046171;28;20028;-74
2024/03/12 00:08:53;;;;;;;3.50;2.42;;;;;;;;;;1045975;28;20498;-74
2024/03/12 00:09:23;;;;;;;0.80;0.63;;;;;;;;;;1045639;28;20027;-75
2024/03/12 00:09:54;;;;;;;1.70;1.58;;;;;;;;;;1045546;28;20025;-75
2024/03/12 00:10:24;;;;;;;2.22;2.08;;;;;;;;;;1045505;28;20020;-75
2024/03/12 00:10:55;;;;;;;1.23;1.13;;;;;;;;;;1045589;28;20032;-76
2024/03/12 00:11:26;;;;;;;0.65;0.65;;;;;;;;;;1045341;28;20104;-76
2024/03/12 00:11:56;;;;;;;5.07;1.42;;;;;;;;;;1046152;28;20067;-74
2024/03/12 00:12:27;;;;;;;1.48;1.38;;;;;;;;;;1045934;28;20446;-74
2024/03/12 00:12:58;;;;;;;0.85;0.82;;;;;;;;;;1046367;28;20579;-75
2024/03/12 00:13:29;;;;;;;2.38;2.17;;;;;;;;;;1044727;28;20056;-74
2024/03/12 00:13:59;;;;;;;0.90;0.90;;;;;;;;;;1046107;28;20029;-74
2024/03/12 00:14:33;;;;;;;0.52;0.52;;;;;;;;;;1043009;28;20074;-75
2024/03/12 00:15:06;;;;;;;3.92;1.05;;;;;;;;;;1044024;28;20301;-74
2024/03/12 00:15:37;;;;;;;7.97;1.75;;;;;;;;;;1045984;28;20025;-76
2024/03/12 00:16:07;;;;;;;1.17;1.17;;;;;;;;;;1042385;28;20021;-76
2024/03/12 00:16:40;;;;;;;0.77;0.75;;;;;;;;;;1043529;28;20029;-75
2024/03/12 00:17:11;;;;;;;3.35;1.80;;;;;;;;;;1043698;28;20028;-74
2024/03/12 00:17:42;;;;;;;6.00;0.77;;;;;;;;;;1043783;28;20021;-74
2024/03/12 00:18:12;;;;;;;3.42;2.58;;;;;;;;;;1045961;28;20049;-76
2024/03/12 00:18:43;;;;;;;1.25;1.25;;;;;;;;;;1046233;28;20118;-76
2024/03/12 00:19:17;;;;;;;3.88;3.00;;;;;;;;;;1045783;28;20063;-75
2024/03/12 00:19:48;;;;;;;0.30;0.30;;;;;;;;;;1046073;28;20025;-75
2024/03/12 00:20:33;;;;;;;2.35;1.63;;;;;;;;;;1045848;28;20024;-75
2024/03/12 00:21:04;;;;;;;1.02;0.93;;;;;;;;;;1046136;28;20058;-76
2024/03/12 00:21:36;;;;;;;1.70;1.35;;;;;;;;;;1044707;28;20017;-75
2024/03/12 00:22:07;;;;;;;1.42;1.33;;;;;;;;;;1045870;28;20060;-76
2024/03/12 00:22:39;;;;;;;8.38;1.70;;;;;;;;;;1042735;28;20383;-74
2024/03/12 00:23:09;;;;;;;0.95;0.95;;;;;;;;;;1044046;28;20025;-74
2024/03/12 00:23:42;;;;;;;2.05;1.95;;;;;;;;;;1045427;28;20045;-75
2024/03/12 00:24:12;;;;;;;1.98;1.88;;;;;;;;;;1045393;28;20017;-76
2024/03/12 00:24:44;;;;;;;1.80;1.40;;;;;;;;;;1046155;28;20102;-76
2024/03/12 00:25:16;;;;;;;1.80;1.70;;;;;;;;;;1045554;28;20166;-75
2024/03/12 00:25:46;;;;;;;1.85;1.40;;;;;;;;;;1046314;28;20361;-75
2024/03/12 00:26:19;;;;;;;1.40;1.30;;;;;;;;;;1046237;28;20031;-75
2024/03/12 00:26:50;;;;;;;1.10;1.10;;;;;;;;;;1045609;28;20016;-77
2024/03/12 00:27:20;;;;;;;0.45;0.45;;;;;;;;;;1045642;28;20527;-74
2024/03/12 00:27:51;;;;;;;3.05;2.83;;;;;;;;;;1045948;28;20033;-74
2024/03/12 00:28:21;;;;;;;3.30;3.00;;;;;;;;;;1045391;28;20142;-75
2024/03/12 00:28:52;;;;;;;1.58;1.48;;;;;;;;;;1045897;28;20512;-76
2024/03/12 00:29:23;;;;;;;6.65;1.05;;;;;;;;;;1042385;28;20024;-76
2024/03/12 00:29:55;;;;;;;0.47;0.47;;;;;;;;;;1044022;28;20090;-75
2024/03/12 00:30:27;;;;;;;1.50;1.42;;;;;;;;;;1045565;28;20446;-76
2024/03/12 00:30:59;;;;;;;2.45;1.55;;;;;;;;;;1040277;28;20401;-76
2024/03/12 00:31:29;;;;;;;0.43;0.43;;;;;;;;;;1045888;28;20119;-74
2024/03/12 00:32:00;;;;;;;1.20;1.10;;;;;;;;;;1045977;28;20094;-77
2024/03/12 00:32:30;;;;;;;1.40;1.00;;;;;;;;;;1045693;28;20024;-75
2024/03/12 00:33:01;;;;;;;2.65;1.75;;;;;;;;;;1045616;28;20030;-75
2024/03/12 00:33:31;;;;;;;5.15;2.30;;;;;;;;;;1045687;28;20480;-77
2024/03/12 00:34:02;;;;;;;2.60;2.40;;;;;;;;;;1046119;28;20115;-76
2024/03/12 00:34:32;;;;;;;0.75;0.63;;;;;;;;;;1046260;28;20024;-76
2024/03/12 00:35:03;;;;;;;1.98;1.85;;;;;;;;;;1046147;28;20028;-75
2024/03/12 00:35:35;;;;;;;3.35;1.77;;;;;;;;;;1045582;28;20024;-77
2024/03/12 00:36:05;;;;;;;2.88;1.60;;;;;;;;;;1043499;28;20031;-76
2024/03/12 00:36:36;;;;;;;2.60;2.40;;;;;;;;;;1042515;28;20028;-74
2024/03/12 00:37:09;;;;;;;3.25;1.85;;;;;;;;;;1043670;28;20029;-75
2024/03/12 00:37:47;;;;;;;1.98;1.80;;;;;;;;;;1045370;28;20078;-76
2024/03/12 00:38:17;;;;;;;3.75;2.42;;;;;;;;;;1046167;28;20029;-77
2024/03/12 00:38:48;;;;;;;1.33;1.30;;;;;;;;;;1045406;28;20361;-75
2024/03/12 00:39:21;;;;;;;1.17;1.15;;;;;;;;;;1045607;28;20025;-74
2024/03/12 00:39:52;;;;;;;1.20;1.20;;;;;;;;;;1046006;28;20495;-74
2024/03/12 00:40:31;;;;;;;1.63;1.52;;;;;;;;;;1045301;28;20024;-74
2024/03/12 00:41:03;;;;;;;0.90;0.90;;;;;;;;;;1045875;28;20013;-74
2024/03/12 00:41:35;;;;;;;1.55;1.45;;;;;;;;;;1045849;28;20028;-76
2024/03/12 00:42:06;;;;;;;1.55;1.42;;;;;;;;;;1046175;28;20017;-76
2024/03/12 00:42:41;;;;;;;1.40;1.30;;;;;;;;;;1045322;28;20476;-75
2024/03/12 00:43:11;;;;;;;1.60;1.50;;;;;;;;;;1044750;28;20067;-77
2024/03/12 00:43:42;;;;;;;5.75;2.42;;;;;;;;;;1045345;28;20036;-76
2024/03/12 00:44:13;;;;;;;7.90;2.05;;;;;;;;;;1045340;28;20029;-76
2024/03/12 00:44:48;;;;;;;1.70;1.42;;;;;;;;;;1045537;28;20021;-77
2024/03/12 00:45:25;;;;;;;1.10;1.00;;;;;;;;;;1044911;28;20028;-76
2024/03/12 00:45:55;;;;;;;2.58;0.60;;;;;;;;;;1041653;28;20100;-74
2024/03/12 00:46:26;;;;;;;0.20;0.20;;;;;;;;;;1043235;28;20021;-76
2024/03/12 00:46:56;;;;;;;4.03;2.97;;;;;;;;;;1045695;28;20058;-75
2024/03/12 00:47:26;;;;;;;2.80;1.20;;;;;;;;;;1040900;28;20025;-76
2024/03/12 00:47:57;;;;;;;1.48;1.38;;;;;;;;;;1045592;28;20033;-77
2024/03/12 00:48:27;;;;;;;20.27;1.75;;;;;;;;;;1045784;28;20025;-76
2024/03/12 00:48:59;;;;;;;12.93;1.02;;;;;;;;;;1043169;28;20065;-74
2024/03/12 00:49:30;;;;;;;3.45;2.28;;;;;;;;;;1044108;28;20063;-74
2024/03/12 00:50:01;;;;;;;2.00;1.55;;;;;;;;;;1045716;28;20031;-75
2024/03/12 00:50:34;;;;;;;1.40;1.15;;;;;;;;;;1045906;28;20017;-76
2024/03/12 00:51:05;;;;;;;1.92;1.83;;;;;;;;;;1046140;28;20187;-74
2024/03/12 00:51:35;;;;;;;0.30;0.30;;;;;;;;;;1045376;28;20046;-76
2024/03/12 00:52:06;;;;;;;1.27;1.17;;;;;;;;;;1045455;28;20025;-75
2024/03/12 00:52:36;;;;;;;0.70;0.70;;;;;;;;;;1045793;28;20074;-75
2024/03/12 00:53:07;;;;;;;2.33;1.10;;;;;;;;;;1045618;28;20025;-75
2024/03/12 00:53:38;;;;;;;0.75;0.75;;;;;;;;;;1045357;28;20122;-75
2024/03/12 00:54:10;;;;;;;3.72;2.05;;;;;;;;;;1045537;28;20029;-75
2024/03/12 00:54:41;;;;;;;3.53;3.20;;;;;;;;;;1045468;28;20028;-75
2024/03/12 00:55:16;;;;;;;0.45;0.45;;;;;;;;;;1045569;28;20028;-76
2024/03/12 00:55:49;;;;;;;1.40;0.95;;;;;;;;;;1046184;28;20025;-76
2024/03/12 00:56:21;;;;;;;3.78;3.15;;;;;;;;;;1045667;28;20028;-74
2024/03/12 00:56:51;;;;;;;0.77;0.45;;;;;;;;;;1045857;28;20528;-76
2024/03/12 00:57:22;;;;;;;1.95;1.08;;;;;;;;;;1046566;28;20059;-76
2024/03/12 00:57:53;;;;;;;1.27;1.10;;;;;;;;;;1045900;28;20025;-75
2024/03/12 00:58:23;;;;;;;2.38;2.17;;;;;;;;;;1045193;28;20119;-75
2024/03/12 00:58:54;;;;;;;2.05;1.48;;;;;;;;;;1045589;28;20037;-75
2024/03/12 00:59:24;;;;;;;4.82;2.97;;;;;;;;;;1043124;28;20451;-76
2024/03/12 00:59:55;;;;;;;3.30;1.15;;;;;;;;;;1043673;28;20029;-75
2024/03/12 01:00:26;;;;;;;4.75;1.20;;;;;;;;;;1045208;28;20389;-74
2024/03/12 01:00:57;;;;;;;2.55;0.80;;;;;;;;;;1045949;28;20029;-75
2024/03/12 01:01:28;;;;;;;2.50;2.38;;;;;;;;;;1045954;28;20160;-76
2024/03/12 01:01:58;;;;;;;0.90;0.90;;;;;;;;;;1045040;28;20035;-74
2024/03/12 01:02:32;;;;;;;2.22;2.08;;;;;;;;;;1044678;28;20029;-75
2024/03/12 01:03:05;;;;;;;0.68;0.68;;;;;;;;;;1044103;28;20054;-77
2024/03/12 01:03:36;;;;;;;7.88;4.03;;;;;;;;;;1044787;28;20016;-75
2024/03/12 01:04:06;;;;;;;1.63;1.52;;;;;;;;;;1045251;28;20024;-75
2024/03/12 01:04:38;;;;;;;0.80;0.80;;;;;;;;;;1045330;28;20033;-74
2024/03/12 01:05:12;;;;;;;1.45;1.35;;;;;;;;;;1041384;28;20024;-74
2024/03/12 01:05:42;;;;;;;0.88;0.88;;;;;;;;;;1041521;28;20025;-77
2024/03/12 01:06:13;;;;;;;0.32;0.32;;;;;;;;;;1041754;28;20022;-74
2024/03/12 01:06:44;;;;;;;2.67;2.38;;;;;;;;;;1041125;28;20037;-75
2024/03/12 01:07:16;;;;;;;0.68;0.68;;;;;;;;;;1045622;28;20025;-75
2024/03/12 01:07:52;;;;;;;9.05;1.85;;;;;;;;;;1045734;28;20024;-76
2024/03/12 01:08:23;;;;;;;4.07;1.70;;;;;;;;;;1045112;28;20029;-76
2024/03/12 01:08:55;;;;;;;0.93;0.93;;;;;;;;;;1045691;28;20125;-76
2024/03/12 01:09:27;;;;;;;1.85;0.80;;;;;;;;;;1044229;28;20051;-75
2024/03/12 01:09:57;;;;;;;1.83;1.15;;;;;;;;;;1045796;28;20408;-74
2024/03/12 01:10:28;;;;;;;1.48;1.40;;;;;;;;;;1045648;28;20021;-74
2024/03/12 01:10:59;;;;;;;3.83;2.55;;;;;;;;;;1046856;28;20091;-74
2024/03/12 01:11:29;;;;;;;4.03;2.05;;;;;;;;;;1045273;28;20107;-76
2024/03/12 01:12:00;;;;;;;1.85;1.75;;;;;;;;;;1044929;28;20071;-75
2024/03/12 01:12:31;;;;;;;4.97;3.20;;;;;;;;;;1045561;28;20052;-75
2024/03/12 01:13:02;;;;;;;2.67;1.50;;;;;;;;;;1045745;28;20087;-76
2024/03/12 01:13:33;;;;;;;6.40;3.17;;;;;;;;;;1045742;28;20381;-75
2024/03/12 01:14:05;;;;;;;1.45;1.40;;;;;;;;;;1045746;28;20107;-74
2024/03/12 01:14:37;;;;;;;4.10;3.70;;;;;;;;;;1046072;28;20032;-76
2024/03/12 01:15:08;;;;;;;2.80;2.13;;;;;;;;;;1045351;28;20027;-76
2024/03/12 01:15:39;;;;;;;3.35;1.02;;;;;;;;;;1043508;28;20037;-76
2024/03/12 01:16:10;;;;;;;1.05;0.90;;;;;;;;;;1044620;28;20407;-75
2024/03/12 01:16:40;;;;;;;2.03;1.63;;;;;;;;;;1042994;28;20460;-75
2024/03/12 01:17:11;;;;;;;2.63;1.75;;;;;;;;;;1044968;28;20380;-76
2024/03/12 01:17:42;;;;;;;4.30;1.85;;;;;;;;;;1047136;28;20078;-77
2024/03/12 01:18:12;;;;;;;2.92;2.67;;;;;;;;;;1043366;28;20016;-75
2024/03/12 01:18:43;;;;;;;1.90;1.55;;;;;;;;;;1044274;28;20493;-76
2024/03/12 01:19:14;;;;;;;3.78;2.03;;;;;;;;;;1044296;28;20107;-74
2024/03/12 01:19:44;;;;;;;2.40;2.20;;;;;;;;;;1046608;28;20021;-75
2024/03/12 01:20:20;;;;;;;5.90;4.35;;;;;;;;;;1046392;28;20028;-74
2024/03/12 01:20:50;;;;;;;1.80;1.70;;;;;;;;;;1046316;28;20025;-76
2024/03/12 01:21:21;;;;;;;0.80;0.80;;;;;;;;;;1045886;28;20028;-75
2024/03/12 01:21:51;;;;;;;0.40;0.40;;;;;;;;;;1046084;28;20551;-76
2024/03/12 01:22:24;;;;;;;34.20;2.50;;;;;;;;;;1046483;28;20048;-76
2024/03/12 01:22:55;;;;;;;0.30;0.30;;;;;;;;;;1046096;28;20059;-76
2024/03/12 01:23:26;;;;;;;1.20;1.20;;;;;;;;;;1046896;28;20027;-75
2024/03/12 01:23:56;;;;;;;5.07;1.65;;;;;;;;;;1046281;28;20485;-75
2024/03/12 01:24:27;;;;;;;0.47;0.47;;;;;;;;;;1046159;28;20048;-76
2024/03/12 01:24:58;;;;;;;7.20;1.40;;;;;;;;;;1042410;28;20555;-77
2024/03/12 01:25:31;;;;;;;1.95;1.83;;;;;;;;;;1039082;28;20456;-75
2024/03/12 01:26:03;;;;;;;3.15;1.45;;;;;;;;;;1041616;28;20511;-76
2024/03/12 01:26:34;;;;;;;2.85;1.50;;;;;;;;;;1046207;28;20522;-74
2024/03/12 01:27:05;;;;;;;6.72;3.63;;;;;;;;;;1040795;28;20029;-78
2024/03/12 01:27:36;;;;;;;0.82;0.82;;;;;;;;;;1041577;28;20038;-77
2024/03/12 01:28:10;;;;;;;2.67;2.13;;;;;;;;;;1045384;28;20021;-75
2024/03/12 01:28:40;;;;;;;2.10;2.00;;;;;;;;;;1044184;28;20468;-78
2024/03/12 01:29:11;;;;;;;0.45;0.45;;;;;;;;;;1043706;28;20029;-75
2024/03/12 01:29:43;;;;;;;0.20;0.20;;;;;;;;;;1039974;28;20020;-74
2024/03/12 01:30:14;;;;;;;5.00;1.05;;;;;;;;;;1039340;28;20018;-74
2024/03/12 01:30:44;;;;;;;2.53;1.35;;;;;;;;;;1040506;28;20020;-74
2024/03/12 01:31:15;;;;;;;1.33;1.25;;;;;;;;;;1038097;28;20029;-76
2024/03/12 01:31:47;;;;;;;1.30;1.20;;;;;;;;;;1042407;28;20056;-75
2024/03/12 01:32:20;;;;;;;2.15;1.95;;;;;;;;;;1045769;28;20079;-75
2024/03/12 01:32:51;;;;;;;1.75;1.60;;;;;;;;;;1043179;28;20075;-74
2024/03/12 01:33:21;;;;;;;3.20;1.92;;;;;;;;;;1045297;28;20027;-76
2024/03/12 01:33:52;;;;;;;0.93;0.68;;;;;;;;;;1046608;28;20028;-73
2024/03/12 01:34:22;;;;;;;4.05;3.75;;;;;;;;;;1040710;28;20071;-74
2024/03/12 01:34:53;;;;;;;3.42;2.25;;;;;;;;;;1044982;28;20021;-75
2024/03/12 01:35:26;;;;;;;1.05;1.05;;;;;;;;;;1041444;28;20440;-74
2024/03/12 01:36:05;;;;;;;3.38;3.05;;;;;;;;;;1044036;28;20025;-74
2024/03/12 01:36:36;;;;;;;1.30;1.23;;;;;;;;;;1042099;28;20111;-75
2024/03/12 01:37:07;;;;;;;2.38;2.17;;;;;;;;;;1044630;28;20032;-75
2024/03/12 01:37:41;;;;;;;1.77;1.48;;;;;;;;;;1046173;28;20469;-75
2024/03/12 01:38:11;;;;;;;0.47;0.47;;;;;;;;;;1045425;28;20016;-74
2024/03/12 01:38:42;;;;;;;1.85;1.60;;;;;;;;;;1045557;28;20040;-75
2024/03/12 01:39:16;;;;;;;1.60;1.50;;;;;;;;;;1045883;28;20020;-76
2024/03/12 01:39:52;;;;;;;7.32;3.20;;;;;;;;;;1046176;28;20017;-74
2024/03/12 01:40:25;;;;;;;0.63;0.60;;;;;;;;;;1046134;28;20156;-74
2024/03/12 01:40:55;;;;;;;1.00;0.95;;;;;;;;;;1046654;28;20025;-75
2024/03/12 01:41:26;;;;;;;8.05;4.97;;;;;;;;;;1046344;28;20556;-75
2024/03/12 01:41:56;;;;;;;0.25;0.25;;;;;;;;;;1045604;28;20476;-76
2024/03/12 01:42:27;;;;;;;1.58;1.45;;;;;;;;;;1044543;28;20032;-74
2024/03/12 01:43:01;;;;;;;0.68;0.68;;;;;;;;;;1045642;28;20070;-75
2024/03/12 01:43:32;;;;;;;2.53;1.45;;;;;;;;;;1045545;28;20028;-75
2024/03/12 01:44:03;;;;;;;34.50;1.45;;;;;;;;;;1045102;28;20501;-74
2024/03/12 01:44:39;;;;;;;1.73;1.15;;;;;;;;;;1045579;28;20032;-74
2024/03/12 01:45:10;;;;;;;2.35;2.15;;;;;;;;;;1045369;28;20029;-74
2024/03/12 01:45:45;;;;;;;0.20;0.20;;;;;;;;;;1046542;28;20024;-76
2024/03/12 01:46:16;;;;;;;2.88;2.30;;;;;;;;;;1046444;28;20031;-76
2024/03/12 01:46:47;;;;;;;3.40;2.28;;;;;;;;;;1045824;28;20067;-73
2024/03/12 01:47:18;;;;;;;2.10;1.40;;;;;;;;;;1043725;28;20036;-76
2024/03/12 01:47:49;;;;;;;3.00;1.75;;;;;;;;;;1044096;28;20020;-76
2024/03/12 01:48:22;;;;;;;0.30;0.30;;;;;;;;;;1041844;28;20541;-74
2024/03/12 01:48:53;;;;;;;0.60;0.60;;;;;;;;;;1046021;28;20028;-73
2024/03/12 01:49:24;;;;;;;7.35;5.00;;;;;;;;;;1044941;28;20021;-75
2024/03/12 01:49:54;;;;;;;3.70;2.08;;;;;;;;;;1045287;28;20109;-76
2024/03/12 01:50:26;;;;;;;0.77;0.77;;;;;;;;;;1045669;28;20098;-74
2024/03/12 01:50:57;;;;;;;0.65;0.65;;;;;;;;;;1042428;28;20019;-75
2024/03/12 01:51:27;;;;;;;0.88;0.80;;;;;;;;;;1042511;28;20377;-74
2024/03/12 01:51:58;;;;;;;0.70;0.70;;;;;;;;;;1042923;28;20025;-77
2024/03/12 01:52:29;;;;;;;1.48;1.00;;;;;;;;;;1043107;28;20025;-74
2024/03/12 01:52:59;;;;;;;1.17;1.02;;;;;;;;;;1043260;28;20380;-75
2024/03/12 01:53:32;;;;;;;1.10;1.02;;;;;;;;;;1043834;28;20480;-75
2024/03/12 01:54:05;;;;;;;1.23;1.13;;;;;;;;;;1044141;28;20025;-75
2024/03/12 01:54:37;;;;;;;1.65;1.23;;;;;;;;;;1043836;28;20028;-75
2024/03/12 01:55:07;;;;;;;3.75;2.53;;;;;;;;;;1045026;28;20485;-75
2024/03/12 01:55:41;;;;;;;0.40;0.40;;;;;;;;;;1041820;28;20025;-76
2024/03/12 01:56:12;;;;;;;1.55;1.45;;;;;;;;;;1040477;28;20120;-75
2024/03/12 01:56:43;;;;;;;1.65;1.45;;;;;;;;;;1039846;28;20021;-76
2024/03/12 01:57:13;;;;;;;0.55;0.55;;;;;;;;;;1039265;28;20073;-76
2024/03/12 01:57:45;;;;;;;0.47;0.47;;;;;;;;;;1037519;28;20542;-75
2024/03/12 01:58:16;;;;;;;0.47;0.40;;;;;;;;;;1038291;28;20029;-75
2024/03/12 01:58:47;;;;;;;1.27;0.98;;;;;;;;;;1042040;28;20366;-76
2024/03/12 01:59:17;;;;;;;1.67;1.58;;;;;;;;;;1046737;28;20111;-75
2024/03/12 01:59:56;;;;;;;4.22;0.98;;;;;;;;;;1044098;28;20073;-77
2024/03/12 02:00:29;;;;;;;1.98;1.88;;;;;;;;;;1046432;28;20021;-75
2024/03/12 02:01:02;;;;;;;1.55;0.93;;;;;;;;;;1043399;28;20080;-78
2024/03/12 02:01:36;;;;;;;2.92;2.70;;;;;;;;;;1040016;28;20036;-75
2024/03/12 02:02:07;;;;;;;1.63;1.52;;;;;;;;;;1038696;28;20045;-75
2024/03/12 02:02:38;;;;;;;1.05;0.80;;;;;;;;;;1043735;28;20565;-76
2024/03/12 02:03:09;;;;;;;0.68;0.68;;;;;;;;;;1044924;28;20465;-75
2024/03/12 02:03:39;;;;;;;1.77;1.52;;;;;;;;;;1040779;28;20083;-76
2024/03/12 02:04:14;;;;;;;2.85;2.65;;;;;;;;;;1044919;28;20036;-76
2024/03/12 02:04:45;;;;;;;0.10;0.10;;;;;;;;;;1039343;28;20025;-76
2024/03/12 02:05:16;;;;;;;2.22;2.03;;;;;;;;;;1039528;28;20588;-75
2024/03/12 02:05:47;;;;;;;1.48;0.90;;;;;;;;;;1044455;28;20032;-75
2024/03/12 02:06:21;;;;;;;2.10;1.98;;;;;;;;;;1043504;28;20070;-76
2024/03/12 02:06:52;;;;;;;4.18;1.05;;;;;;;;;;1041953;28;20033;-74
2024/03/12 02:07:23;;;;;;;1.65;1.50;;;;;;;;;;1040772;28;20022;-76
2024/03/12 02:07:53;;;;;;;1.75;1.65;;;;;;;;;;1042756;28;20068;-76
2024/03/12 02:08:24;;;;;;;0.25;0.25;;;;;;;;;;1045401;28;20033;-76
2024/03/12 02:09:03;;;;;;;1.83;1.73;;;;;;;;;;1047997;28;20106;-76
2024/03/12 02:09:43;;;;;;;0.85;0.75;;;;;;;;;;1049017;28;20020;-76
2024/03/12 02:10:18;;;;;;;6.22;2.28;;;;;;;;;;1047374;28;20016;-75
2024/03/12 02:10:49;;;;;;;2.65;2.45;;;;;;;;;;1042441;28;20025;-76
2024/03/12 02:11:19;;;;;;;2.13;1.33;;;;;;;;;;1044631;28;20013;-76
2024/03/12 02:11:50;;;;;;;1.25;0.75;;;;;;;;;;1043552;28;20029;-76
2024/03/12 02:12:22;;;;;;;5.68;2.63;;;;;;;;;;1040915;28;20421;-76
2024/03/12 02:12:53;;;;;;;0.35;0.35;;;;;;;;;;1040128;28;20112;-74
2024/03/12 02:13:24;;;;;;;1.13;1.13;;;;;;;;;;1041184;28;20365;-75
2024/03/12 02:13:54;;;;;;;3.15;2.85;;;;;;;;;;1044435;28;20029;-76
2024/03/12 02:14:25;;;;;;;0.65;0.65;;;;;;;;;;1045832;28;20399;-75
2024/03/12 02:14:56;;;;;;;0.60;0.60;;;;;;;;;;1046154;28;20024;-77
2024/03/12 02:15:26;;;;;;;0.93;0.93;;;;;;;;;;1046246;28;20020;-76
2024/03/12 02:15:58;;;;;;;2.08;1.95;;;;;;;;;;1044826;28;20021;-77
2024/03/12 02:16:28;;;;;;;3.22;2.05;;;;;;;;;;1044588;28;20039;-77
2024/03/12 02:16:59;;;;;;;2.45;1.20;;;;;;;;;;1045491;28;20027;-75
2024/03/12 02:17:30;;;;;;;7.65;2.70;;;;;;;;;;1045829;28;20515;-75
2024/03/12 02:18:01;;;;;;;2.17;1.10;;;;;;;;;;1043977;28;20120;-77
2024/03/12 02:18:34;;;;;;;3.50;1.00;;;;;;;;;;1043254;28;20028;-75
2024/03/12 02:19:05;;;;;;;0.65;0.65;;;;;;;;;;1043414;28;20025;-75
2024/03/12 02:19:36;;;;;;;1.90;1.65;;;;;;;;;;1045065;28;20032;-76
2024/03/12 02:20:09;;;;;;;0.45;0.35;;;;;;;;;;1045612;28;20035;-75
2024/03/12 02:20:40;;;;;;;1.38;1.27;;;;;;;;;;1042886;28;20087;-75
2024/03/12 02:21:11;;;;;;;1.20;1.20;;;;;;;;;;1045715;28;20021;-74
2024/03/12 02:21:44;;;;;;;1.75;1.40;;;;;;;;;;1046385;28;20594;-75
2024/03/12 02:22:15;;;;;;;0.63;0.63;;;;;;;;;;1042388;28;20012;-76
2024/03/12 02:22:45;;;;;;;3.55;2.65;;;;;;;;;;1044164;28;20017;-78
2024/03/12 02:23:16;;;;;;;0.68;0.68;;;;;;;;;;1039832;28;20025;-77
2024/03/12 02:23:47;;;;;;;1.48;1.38;;;;;;;;;;1040618;28;20033;-76
2024/03/12 02:24:17;;;;;;;3.78;1.15;;;;;;;;;;1040408;28;20667;-77
2024/03/12 02:24:50;;;;;;;5.43;3.22;;;;;;;;;;1037391;28;20026;-76
2024/03/12 02:25:21;;;;;;;0.95;0.95;;;;;;;;;;1038861;28;20039;-76
2024/03/12 02:25:52;;;;;;;3.33;1.95;;;;;;;;;;1041499;28;20349;-76
2024/03/12 02:26:24;;;;;;;8.60;1.27;;;;;;;;;;1041925;28;20017;-75
2024/03/12 02:26:55;;;;;;;5.22;1.08;;;;;;;;;;1041733;28;20027;-75
2024/03/12 02:27:25;;;;;;;1.13;0.80;;;;;;;;;;1040803;28;20484;-74
2024/03/12 02:27:56;;;;;;;0.35;0.35;;;;;;;;;;1040002;28;20108;-74
2024/03/12 02:28:27;;;;;;;0.20;0.20;;;;;;;;;;1045242;28;20079;-74
2024/03/12 02:28:57;;;;;;;3.15;0.60;;;;;;;;;;1042720;28;20528;-74
2024/03/12 02:29:28;;;;;;;3.05;2.85;;;;;;;;;;1044052;28;20012;-76
2024/03/12 02:29:59;;;;;;;0.30;0.30;;;;;;;;;;1041716;28;20031;-76
2024/03/12 02:30:29;;;;;;;1.27;1.17;;;;;;;;;;1040435;28;20032;-75
2024/03/12 02:31:00;;;;;;;2.70;2.30;;;;;;;;;;1044597;28;20194;-75
2024/03/12 02:31:32;;;;;;;0.20;0.20;;;;;;;;;;1041675;28;20029;-76
2024/03/12 02:32:02;;;;;;;0.17;0.17;;;;;;;;;;1042221;28;20727;-75
2024/03/12 02:32:33;;;;;;;1.42;0.55;;;;;;;;;;1043534;28;20044;-75
2024/03/12 02:33:04;;;;;;;2.72;2.45;;;;;;;;;;1044517;28;20102;-76
2024/03/12 02:33:35;;;;;;;6.43;2.25;;;;;;;;;;1045317;28;20119;-75
2024/03/12 02:34:09;;;;;;;10.60;1.85;;;;;;;;;;1043258;28;20032;-75
2024/03/12 02:34:39;;;;;;;1.60;1.50;;;;;;;;;;1044497;28;20521;-75
2024/03/12 02:35:11;;;;;;;0.45;0.45;;;;;;;;;;1045687;28;20025;-75
2024/03/12 02:35:41;;;;;;;0.40;0.40;;;;;;;;;;1040751;28;20039;-76
2024/03/12 02:36:12;;;;;;;2.40;2.25;;;;;;;;;;1042835;28;20064;-76
2024/03/12 02:36:43;;;;;;;1.20;1.13;;;;;;;;;;1038974;28;20032;-77
2024/03/12 02:37:13;;;;;;;0.65;0.57;;;;;;;;;;1045471;28;20146;-75
2024/03/12 02:37:44;;;;;;;3.10;2.78;;;;;;;;;;1045697;28;20025;-74
2024/03/12 02:38:14;;;;;;;0.77;0.50;;;;;;;;;;1045788;28;20021;-75
2024/03/12 02:38:45;;;;;;;1.27;1.17;;;;;;;;;;1045408;28;20020;-76
2024/03/12 02:39:18;;;;;;;4.75;2.20;;;;;;;;;;1043741;28;20063;-75
2024/03/12 02:39:49;;;;;;;4.47;1.88;;;;;;;;;;1042938;28;20102;-76
2024/03/12 02:40:20;;;;;;;2.70;0.98;;;;;;;;;;1042482;28;20561;-75
2024/03/12 02:40:50;;;;;;;2.38;1.75;;;;;;;;;;1044784;28;20043;-76
2024/03/12 02:41:21;;;;;;;2.70;1.17;;;;;;;;;;1043693;28;20028;-75
2024/03/12 02:41:52;;;;;;;5.90;3.50;;;;;;;;;;1045625;28;20432;-75
2024/03/12 02:42:23;;;;;;;2.13;1.90;;;;;;;;;;1042107;28;20041;-75
2024/03/12 02:42:54;;;;;;;0.60;0.60;;;;;;;;;;1043575;28;20494;-74
2024/03/12 02:43:24;;;;;;;1.63;1.52;;;;;;;;;;1043941;28;20587;-76
2024/03/12 02:43:55;;;;;;;0.60;0.60;;;;;;;;;;1042789;28;20030;-75
2024/03/12 02:44:26;;;;;;;0.75;0.75;;;;;;;;;;1043977;28;20109;-74
2024/03/12 02:44:57;;;;;;;1.48;1.38;;;;;;;;;;1041871;28;20097;-74
2024/03/12 02:45:28;;;;;;;2.83;2.08;;;;;;;;;;1039712;28;20036;-74
2024/03/12 02:45:58;;;;;;;2.28;1.75;;;;;;;;;;1039599;28;20017;-74
2024/03/12 02:46:29;;;;;;;1.90;1.40;;;;;;;;;;1045097;28;20111;-74
2024/03/12 02:47:00;;;;;;;6.10;0.68;;;;;;;;;;1042351;28;20484;-76
2024/03/12 02:47:30;;;;;;;0.52;0.52;;;;;;;;;;1041678;28;20507;-75
2024/03/12 02:48:03;;;;;;;0.20;0.20;;;;;;;;;;1040890;28;20033;-75
2024/03/12 02:48:34;;;;;;;0.73;0.73;;;;;;;;;;1041365;28;20355;-75
2024/03/12 02:49:07;;;;;;;1.25;0.50;;;;;;;;;;1037473;28;20037;-75
2024/03/12 02:49:38;;;;;;;1.02;0.98;;;;;;;;;;1040063;28;20112;-74
2024/03/12 02:50:09;;;;;;;1.08;0.47;;;;;;;;;;1041797;28;20512;-74
2024/03/12 02:50:39;;;;;;;5.85;0.93;;;;;;;;;;1041469;28;20123;-74
2024/03/12 02:51:11;;;;;;;2.50;1.65;;;;;;;;;;1042573;28;20048;-75
2024/03/12 02:51:42;;;;;;;3.05;2.47;;;;;;;;;;1042701;28;20673;-74
2024/03/12 02:52:12;;;;;;;1.55;1.45;;;;;;;;;;1039027;28;20021;-75
2024/03/12 02:52:44;;;;;;;2.85;1.35;;;;;;;;;;1036913;28;20060;-74
2024/03/12 02:53:15;;;;;;;0.90;0.90;;;;;;;;;;1039789;28;20032;-74
2024/03/12 02:53:46;;;;;;;1.17;1.10;;;;;;;;;;1040453;28;20056;-76
2024/03/12 02:54:17;;;;;;;1.42;1.27;;;;;;;;;;1041903;28;20020;-75
2024/03/12 02:54:47;;;;;;;4.20;2.47;;;;;;;;;;1042436;28;20114;-75
2024/03/12 02:55:19;;;;;;;2.83;2.42;;;;;;;;;;1042056;28;20484;-75
2024/03/12 02:55:49;;;;;;;1.58;1.13;;;;;;;;;;1042860;28;20104;-75
2024/03/12 02:56:20;;;;;;;2.35;1.13;;;;;;;;;;1038850;28;20025;-75
2024/03/12 02:56:51;;;;;;;0.70;0.70;;;;;;;;;;1034385;28;20184;-75
2024/03/12 02:57:22;;;;;;;11.27;3.20;;;;;;;;;;1039959;28;20611;-76
2024/03/12 02:58:04;;;;;;;2.25;2.05;;;;;;;;;;1041398;28;20599;-75
2024/03/12 02:58:35;;;;;;;2.83;2.50;;;;;;;;;;1040688;28;20031;-76
2024/03/12 02:59:08;;;;;;;4.30;1.40;;;;;;;;;;1041751;28;20390;-75
2024/03/12 02:59:39;;;;;;;0.68;0.68;;;;;;;;;;1040137;28;20025;-75
2024/03/12 03:00:14;;;;;;;1.45;1.35;;;;;;;;;;1041536;28;20809;-75
2024/03/12 03:00:44;;;;;;;13.40;2.42;;;;;;;;;;1039925;28;20497;-75
2024/03/12 03:01:16;;;;;;;2.00;1.88;;;;;;;;;;1040853;28;20026;-73
2024/03/12 03:01:47;;;;;;;0.57;0.57;;;;;;;;;;1042462;28;20022;-74
2024/03/12 03:02:18;;;;;;;1.90;1.67;;;;;;;;;;1040993;28;20052;-76
2024/03/12 03:02:48;;;;;;;0.50;0.38;;;;;;;;;;1035943;28;20358;-74
2024/03/12 03:03:22;;;;;;;1.38;1.27;;;;;;;;;;1040905;28;20021;-75
2024/03/12 03:03:52;;;;;;;1.88;1.55;;;;;;;;;;1039988;28;20029;-76
2024/03/12 03:04:23;;;;;;;3.78;2.08;;;;;;;;;;1038879;28;20054;-74
2024/03/12 03:04:54;;;;;;;2.70;1.92;;;;;;;;;;1040674;28;20087;-74
2024/03/12 03:05:25;;;;;;;4.03;2.33;;;;;;;;;;1034546;28;20021;-76
2024/03/12 03:05:56;;;;;;;1.50;1.40;;;;;;;;;;1039827;28;20992;-75
2024/03/12 03:06:27;;;;;;;2.53;2.33;;;;;;;;;;1040602;28;20984;-76
2024/03/12 03:07:11;;;;;;;0.88;0.88;;;;;;;;;;1038272;28;20093;-75
2024/03/12 03:07:46;;;;;;;1.42;1.35;;;;;;;;;;1036874;28;20174;-75
2024/03/12 03:08:18;;;;;;;0.65;0.65;;;;;;;;;;1035318;28;20328;-76
2024/03/12 03:08:51;;;;;;;1.35;1.25;;;;;;;;;;1038870;28;20045;-77
2024/03/12 03:09:22;;;;;;;30.75;2.30;;;;;;;;;;1037394;28;20021;-75